sensor_id;sensor_type;location;lat;lon;timestamp;temperature;humidity
4826;DHT22;2427;50.934;6.776;2023-02-13T00:01:24;8.20;99.90
4826;DHT22;2427;50.934;6.776;2023-02-13T00:03:50;8.20;99.90
4826;DHT22;2427;50.934;6.776;2023-02-13T00:06:15;8.20;99.90
4826;DHT22;2427;50.934;6.776;2023-02-13T00:08:41;8.20;99.90
4826;DHT22;2427;50.934;6.776;2023-02-13T00:11:06;8.20;99.90
4826;DHT22;2427;50.934;6.776;2023-02-13T00:13:33;8.20;99.90
4826;DHT22;2427;50.934;6.776;2023-02-13T00:16:02;8.20;99.90
4826;DHT22;2427;50.934;6.776;2023-02-13T00:18:28;8.10;99.90
4826;DHT22;2427;50.934;6.776;2023-02-13T00:21:03;8.20;99.90
4826;DHT22;2427;50.934;6.776;2023-02-13T00:23:31;8.20;99.90
4826;DHT22;2427;50.934;6.776;2023-02-13T00:25:57;8.20;99.90
4826;DHT22;2427;50.934;6.776;2023-02-13T00:28:23;8.20;99.90
4826;DHT22;2427;50.934;6.776;2023-02-13T00:30:49;8.20;99.90
4826;DHT22;2427;50.934;6.776;2023-02-13T00:33:14;8.20;99.90
4826;DHT22;2427;50.934;6.776;2023-02-13T00:35:40;8.20;99.90
4826;DHT22;2427;50.934;6.776;2023-02-13T00:38:05;8.20;99.90
4826;DHT22;2427;50.934;6.776;2023-02-13T00:40:31;8.20;1.00
4826;DHT22;2427;50.934;6.776;2023-02-13T00:42:56;8.30;99.90
4826;DHT22;2427;50.934;6.776;2023-02-13T00:45:22;8.20;99.90
4826;DHT22;2427;50.934;6.776;2023-02-13T00:47:47;8.20;99.90
4826;DHT22;2427;50.934;6.776;2023-02-13T00:50:13;8.10;99.90
4826;DHT22;2427;50.934;6.776;2023-02-13T00:52:38;8.20;99.90
4826;DHT22;2427;50.934;6.776;2023-02-13T00:55:04;8.20;99.90
4826;DHT22;2427;50.934;6.776;2023-02-13T00:57:30;8.10;99.90
4826;DHT22;2427;50.934;6.776;2023-02-13T00:59:56;8.10;99.90
4826;DHT22;2427;50.934;6.776;2023-02-13T01:02:22;8.10;99.90
4826;DHT22;2427;50.934;6.776;2023-02-13T01:04:48;8.10;99.90
4826;DHT22;2427;50.934;6.776;2023-02-13T01:07:13;8.10;99.90
4826;DHT22;2427;50.934;6.776;2023-02-13T01:09:39;8.00;99.90
4826;DHT22;2427;50.934;6.776;2023-02-13T01:12:05;8.10;99.90
4826;DHT22;2427;50.934;6.776;2023-02-13T01:14:30;8.10;99.90
4826;DHT22;2427;50.934;6.776;2023-02-13T01:16:56;8.10;99.90
4826;DHT22;2427;50.934;6.776;2023-02-13T01:19:21;8.10;99.90
4826;DHT22;2427;50.934;6.776;2023-02-13T01:21:47;8.10;99.90
4826;DHT22;2427;50.934;6.776;2023-02-13T01:24:12;8.10;99.90
4826;DHT22;2427;50.934;6.776;2023-02-13T01:26:38;8.10;99.90
4826;DHT22;2427;50.934;6.776;2023-02-13T01:29:04;8.10;99.90
4826;DHT22;2427;50.934;6.776;2023-02-13T01:31:30;8.10;99.90
4826;DHT22;2427;50.934;6.776;2023-02-13T01:33:56;8.10;99.90
4826;DHT22;2427;50.934;6.776;2023-02-13T01:36:23;8.10;99.90
4826;DHT22;2427;50.934;6.776;2023-02-13T01:38:52;8.10;99.90
4826;DHT22;2427;50.934;6.776;2023-02-13T01:41:18;8.10;99.90
4826;DHT22;2427;50.934;6.776;2023-02-13T01:43:45;8.10;99.90
4826;DHT22;2427;50.934;6.776;2023-02-13T01:46:13;8.10;99.90
4826;DHT22;2427;50.934;6.776;2023-02-13T01:48:40;8.00;99.90
4826;DHT22;2427;50.934;6.776;2023-02-13T01:51:10;8.00;99.90
4826;DHT22;2427;50.934;6.776;2023-02-13T01:56:25;8.00;99.90
4826;DHT22;2427;50.934;6.776;2023-02-13T01:58:54;8.00;99.90
4826;DHT22;2427;50.934;6.776;2023-02-13T02:12:21;8.00;99.90
4826;DHT22;2427;50.934;6.776;2023-02-13T02:14:48;8.00;99.90
4826;DHT22;2427;50.934;6.776;2023-02-13T02:17:15;8.00;99.90
4826;DHT22;2427;50.934;6.776;2023-02-13T02:19:54;8.00;99.90
4826;DHT22;2427;50.934;6.776;2023-02-13T02:27:51;8.00;99.90
4826;DHT22;2427;50.934;6.776;2023-02-13T02:30:37;8.00;99.90
4826;DHT22;2427;50.934;6.776;2023-02-13T02:36:17;7.90;99.90
4826;DHT22;2427;50.934;6.776;2023-02-13T02:44:32;7.90;83.50
4826;DHT22;2427;50.934;6.776;2023-02-13T02:47:26;7.90;97.30
4826;DHT22;2427;50.934;6.776;2023-02-13T02:52:58;7.90;99.90
4826;DHT22;2427;50.934;6.776;2023-02-13T02:55:37;7.80;99.90
4826;DHT22;2427;50.934;6.776;2023-02-13T02:58:22;7.90;99.90
4826;DHT22;2427;50.934;6.776;2023-02-13T03:01:17;7.90;99.90
4826;DHT22;2427;50.934;6.776;2023-02-13T03:04:04;7.90;99.90
4826;DHT22;2427;50.934;6.776;2023-02-13T03:06:58;7.80;99.90
4826;DHT22;2427;50.934;6.776;2023-02-13T03:09:31;7.80;99.90
4826;DHT22;2427;50.934;6.776;2023-02-13T03:12:21;7.80;99.90
4826;DHT22;2427;50.934;6.776;2023-02-13T03:15:06;7.80;99.90
4826;DHT22;2427;50.934;6.776;2023-02-13T03:17:32;7.80;99.90
4826;DHT22;2427;50.934;6.776;2023-02-13T03:21:07;7.80;99.90
4826;DHT22;2427;50.934;6.776;2023-02-13T03:29:35;7.80;99.90
4826;DHT22;2427;50.934;6.776;2023-02-13T03:35:26;7.70;99.90
4826;DHT22;2427;50.934;6.776;2023-02-13T03:38:26;7.70;99.90
4826;DHT22;2427;50.934;6.776;2023-02-13T03:41:02;7.60;99.90
4826;DHT22;2427;50.934;6.776;2023-02-13T03:46:23;7.60;99.90
4826;DHT22;2427;50.934;6.776;2023-02-13T03:48:49;7.60;99.90
4826;DHT22;2427;50.934;6.776;2023-02-13T03:51:38;7.50;99.90
4826;DHT22;2427;50.934;6.776;2023-02-13T03:54:11;7.50;99.90
4826;DHT22;2427;50.934;6.776;2023-02-13T03:56:40;7.50;1.00
4826;DHT22;2427;50.934;6.776;2023-02-13T03:59:34;7.50;99.90
4826;DHT22;2427;50.934;6.776;2023-02-13T04:02:10;7.40;1.00
4826;DHT22;2427;50.934;6.776;2023-02-13T04:05:05;7.40;1.00
4826;DHT22;2427;50.934;6.776;2023-02-13T04:07:32;7.30;1.00
4826;DHT22;2427;50.934;6.776;2023-02-13T04:10:09;7.30;1.00
4826;DHT22;2427;50.934;6.776;2023-02-13T04:15:30;7.20;1.00
4826;DHT22;2427;50.934;6.776;2023-02-13T04:18:17;7.10;1.00
4826;DHT22;2427;50.934;6.776;2023-02-13T04:20:43;7.00;1.00
4826;DHT22;2427;50.934;6.776;2023-02-13T04:23:10;7.00;1.00
4826;DHT22;2427;50.934;6.776;2023-02-13T04:25:38;7.00;1.00
4826;DHT22;2427;50.934;6.776;2023-02-13T04:28:03;6.90;1.00
4826;DHT22;2427;50.934;6.776;2023-02-13T04:30:31;6.90;27.80
4826;DHT22;2427;50.934;6.776;2023-02-13T04:32:56;6.80;99.70
4826;DHT22;2427;50.934;6.776;2023-02-13T04:35:22;6.80;99.90
4826;DHT22;2427;50.934;6.776;2023-02-13T04:37:48;6.70;99.90
4826;DHT22;2427;50.934;6.776;2023-02-13T04:40:13;6.70;99.90
4826;DHT22;2427;50.934;6.776;2023-02-13T04:42:39;6.70;99.90
4826;DHT22;2427;50.934;6.776;2023-02-13T04:45:04;6.70;99.90
4826;DHT22;2427;50.934;6.776;2023-02-13T04:47:30;6.60;99.90
4826;DHT22;2427;50.934;6.776;2023-02-13T04:49:56;6.60;1.00
4826;DHT22;2427;50.934;6.776;2023-02-13T04:52:21;6.50;1.00
4826;DHT22;2427;50.934;6.776;2023-02-13T04:54:47;6.50;1.00
4826;DHT22;2427;50.934;6.776;2023-02-13T04:57:12;6.50;1.00
4826;DHT22;2427;50.934;6.776;2023-02-13T04:59:38;6.50;1.00
4826;DHT22;2427;50.934;6.776;2023-02-13T05:02:03;6.50;1.00
4826;DHT22;2427;50.934;6.776;2023-02-13T05:04:29;6.40;1.00
4826;DHT22;2427;50.934;6.776;2023-02-13T05:06:55;6.40;1.00
4826;DHT22;2427;50.934;6.776;2023-02-13T05:09:20;6.40;1.00
4826;DHT22;2427;50.934;6.776;2023-02-13T05:11:46;6.30;30.40
4826;DHT22;2427;50.934;6.776;2023-02-13T05:14:11;6.30;99.90
4826;DHT22;2427;50.934;6.776;2023-02-13T05:16:37;6.30;99.90
4826;DHT22;2427;50.934;6.776;2023-02-13T05:19:03;6.20;99.90
4826;DHT22;2427;50.934;6.776;2023-02-13T05:21:28;6.20;1.00
4826;DHT22;2427;50.934;6.776;2023-02-13T05:24:12;6.20;1.00
4826;DHT22;2427;50.934;6.776;2023-02-13T05:26:38;6.10;1.00
4826;DHT22;2427;50.934;6.776;2023-02-13T05:29:04;6.10;1.00
4826;DHT22;2427;50.934;6.776;2023-02-13T05:31:50;6.10;1.00
4826;DHT22;2427;50.934;6.776;2023-02-13T05:34:16;6.10;1.00
4826;DHT22;2427;50.934;6.776;2023-02-13T05:36:42;6.10;1.00
4826;DHT22;2427;50.934;6.776;2023-02-13T05:39:07;6.10;1.00
4826;DHT22;2427;50.934;6.776;2023-02-13T05:41:33;6.10;62.40
4826;DHT22;2427;50.934;6.776;2023-02-13T05:43:59;6.00;75.90
4826;DHT22;2427;50.934;6.776;2023-02-13T05:46:24;6.00;99.90
4826;DHT22;2427;50.934;6.776;2023-02-13T05:48:51;5.90;99.90
4826;DHT22;2427;50.934;6.776;2023-02-13T05:51:17;5.90;99.90
4826;DHT22;2427;50.934;6.776;2023-02-13T05:53:43;5.80;1.00
4826;DHT22;2427;50.934;6.776;2023-02-13T05:56:08;5.80;1.00
4826;DHT22;2427;50.934;6.776;2023-02-13T05:58:34;5.70;1.00
4826;DHT22;2427;50.934;6.776;2023-02-13T06:01:00;5.70;1.00
4826;DHT22;2427;50.934;6.776;2023-02-13T06:03:27;5.70;99.90
4826;DHT22;2427;50.934;6.776;2023-02-13T06:05:54;5.70;99.90
4826;DHT22;2427;50.934;6.776;2023-02-13T06:08:20;5.70;99.90
4826;DHT22;2427;50.934;6.776;2023-02-13T06:10:46;5.80;1.00
4826;DHT22;2427;50.934;6.776;2023-02-13T06:13:12;5.80;99.90
4826;DHT22;2427;50.934;6.776;2023-02-13T06:15:38;5.80;99.90
4826;DHT22;2427;50.934;6.776;2023-02-13T06:18:04;5.80;28.80
4826;DHT22;2427;50.934;6.776;2023-02-13T06:20:30;5.80;1.00
4826;DHT22;2427;50.934;6.776;2023-02-13T06:22:55;5.80;1.00
4826;DHT22;2427;50.934;6.776;2023-02-13T06:25:21;5.70;1.00
4826;DHT22;2427;50.934;6.776;2023-02-13T06:27:47;5.70;1.00
4826;DHT22;2427;50.934;6.776;2023-02-13T06:30:13;5.60;1.00
4826;DHT22;2427;50.934;6.776;2023-02-13T06:32:39;5.60;99.90
4826;DHT22;2427;50.934;6.776;2023-02-13T06:35:05;5.50;99.90
4826;DHT22;2427;50.934;6.776;2023-02-13T06:37:31;5.50;99.90
4826;DHT22;2427;50.934;6.776;2023-02-13T06:39:56;5.50;1.00
4826;DHT22;2427;50.934;6.776;2023-02-13T06:42:22;5.50;1.00
4826;DHT22;2427;50.934;6.776;2023-02-13T06:44:47;5.50;1.00
4826;DHT22;2427;50.934;6.776;2023-02-13T06:47:13;5.50;1.00
4826;DHT22;2427;50.934;6.776;2023-02-13T06:49:38;5.50;1.00
4826;DHT22;2427;50.934;6.776;2023-02-13T06:52:04;5.50;1.00
4826;DHT22;2427;50.934;6.776;2023-02-13T06:54:30;5.50;1.00
4826;DHT22;2427;50.934;6.776;2023-02-13T06:56:55;5.50;1.00
4826;DHT22;2427;50.934;6.776;2023-02-13T06:59:21;5.50;99.90
4826;DHT22;2427;50.934;6.776;2023-02-13T07:01:46;5.50;99.90
4826;DHT22;2427;50.934;6.776;2023-02-13T07:04:12;5.50;99.90
4826;DHT22;2427;50.934;6.776;2023-02-13T07:06:37;5.50;99.90
4826;DHT22;2427;50.934;6.776;2023-02-13T07:09:03;5.50;99.90
4826;DHT22;2427;50.934;6.776;2023-02-13T07:11:29;5.50;99.90
4826;DHT22;2427;50.934;6.776;2023-02-13T07:13:56;5.60;99.90
4826;DHT22;2427;50.934;6.776;2023-02-13T07:16:22;5.60;99.90
4826;DHT22;2427;50.934;6.776;2023-02-13T07:18:47;5.60;99.90
4826;DHT22;2427;50.934;6.776;2023-02-13T07:21:13;5.60;77.90
4826;DHT22;2427;50.934;6.776;2023-02-13T07:23:39;5.60;47.10
4826;DHT22;2427;50.934;6.776;2023-02-13T07:26:04;5.70;29.70
4826;DHT22;2427;50.934;6.776;2023-02-13T07:28:30;5.70;1.00
4826;DHT22;2427;50.934;6.776;2023-02-13T07:30:56;5.70;1.00
4826;DHT22;2427;50.934;6.776;2023-02-13T07:33:22;5.70;1.00
4826;DHT22;2427;50.934;6.776;2023-02-13T07:35:49;5.80;1.00
4826;DHT22;2427;50.934;6.776;2023-02-13T07:38:16;5.80;1.00
4826;DHT22;2427;50.934;6.776;2023-02-13T07:40:42;5.80;99.90
4826;DHT22;2427;50.934;6.776;2023-02-13T07:43:08;5.80;99.90
4826;DHT22;2427;50.934;6.776;2023-02-13T07:45:34;5.90;99.90
4826;DHT22;2427;50.934;6.776;2023-02-13T07:48:05;5.90;12.20
4826;DHT22;2427;50.934;6.776;2023-02-13T07:50:34;6.00;1.00
4826;DHT22;2427;50.934;6.776;2023-02-13T07:53:00;6.00;1.00
4826;DHT22;2427;50.934;6.776;2023-02-13T07:55:28;6.30;1.00
4826;DHT22;2427;50.934;6.776;2023-02-13T07:57:54;6.40;99.90
4826;DHT22;2427;50.934;6.776;2023-02-13T08:00:23;6.40;1.00
4826;DHT22;2427;50.934;6.776;2023-02-13T08:02:48;6.50;1.00
4826;DHT22;2427;50.934;6.776;2023-02-13T08:05:14;6.50;1.00
4826;DHT22;2427;50.934;6.776;2023-02-13T08:07:39;6.60;1.00
4826;DHT22;2427;50.934;6.776;2023-02-13T08:10:07;6.60;99.90
4826;DHT22;2427;50.934;6.776;2023-02-13T08:12:52;6.70;99.90
4826;DHT22;2427;50.934;6.776;2023-02-13T08:15:19;6.70;98.20
4826;DHT22;2427;50.934;6.776;2023-02-13T08:17:44;6.70;47.70
4826;DHT22;2427;50.934;6.776;2023-02-13T08:20:13;6.70;17.60
4826;DHT22;2427;50.934;6.776;2023-02-13T08:22:39;6.70;1.00
4826;DHT22;2427;50.934;6.776;2023-02-13T08:25:07;6.70;10.10
4826;DHT22;2427;50.934;6.776;2023-02-13T08:27:33;6.70;32.80
4826;DHT22;2427;50.934;6.776;2023-02-13T08:29:59;6.80;1.00
4826;DHT22;2427;50.934;6.776;2023-02-13T08:32:26;6.80;1.00
4826;DHT22;2427;50.934;6.776;2023-02-13T08:34:51;6.80;1.00
4826;DHT22;2427;50.934;6.776;2023-02-13T08:37:17;6.80;1.00
4826;DHT22;2427;50.934;6.776;2023-02-13T08:39:43;6.90;1.00
4826;DHT22;2427;50.934;6.776;2023-02-13T08:42:09;6.90;1.00
4826;DHT22;2427;50.934;6.776;2023-02-13T08:44:35;7.00;1.00
4826;DHT22;2427;50.934;6.776;2023-02-13T08:47:01;7.00;1.00
4826;DHT22;2427;50.934;6.776;2023-02-13T08:49:31;7.10;1.00
4826;DHT22;2427;50.934;6.776;2023-02-13T08:51:58;7.10;1.00
4826;DHT22;2427;50.934;6.776;2023-02-13T08:54:24;7.10;99.90
4826;DHT22;2427;50.934;6.776;2023-02-13T08:56:50;7.10;99.90
4826;DHT22;2427;50.934;6.776;2023-02-13T08:59:35;7.20;99.90
4826;DHT22;2427;50.934;6.776;2023-02-13T09:02:18;7.30;99.90
4826;DHT22;2427;50.934;6.776;2023-02-13T09:05:05;7.30;99.90
4826;DHT22;2427;50.934;6.776;2023-02-13T09:07:32;7.40;99.90
4826;DHT22;2427;50.934;6.776;2023-02-13T09:10:03;7.40;99.90
4826;DHT22;2427;50.934;6.776;2023-02-13T09:12:52;7.50;99.90
4826;DHT22;2427;50.934;6.776;2023-02-13T09:15:18;7.50;29.00
4826;DHT22;2427;50.934;6.776;2023-02-13T09:17:46;7.60;1.00
4826;DHT22;2427;50.934;6.776;2023-02-13T09:20:14;7.60;1.00
4826;DHT22;2427;50.934;6.776;2023-02-13T09:22:48;7.70;1.00
4826;DHT22;2427;50.934;6.776;2023-02-13T09:25:13;7.80;1.00
4826;DHT22;2427;50.934;6.776;2023-02-13T09:27:39;7.80;1.00
4826;DHT22;2427;50.934;6.776;2023-02-13T09:30:09;7.80;1.00
4826;DHT22;2427;50.934;6.776;2023-02-13T09:32:35;7.90;1.00
4826;DHT22;2427;50.934;6.776;2023-02-13T09:35:02;8.00;1.00
4826;DHT22;2427;50.934;6.776;2023-02-13T09:37:28;8.00;1.00
4826;DHT22;2427;50.934;6.776;2023-02-13T09:39:54;8.10;1.00
4826;DHT22;2427;50.934;6.776;2023-02-13T09:42:28;8.20;1.00
4826;DHT22;2427;50.934;6.776;2023-02-13T09:44:59;8.30;1.00
4826;DHT22;2427;50.934;6.776;2023-02-13T09:47:30;8.30;1.00
4826;DHT22;2427;50.934;6.776;2023-02-13T09:50:13;8.30;99.90
4826;DHT22;2427;50.934;6.776;2023-02-13T09:52:43;8.40;99.90
4826;DHT22;2427;50.934;6.776;2023-02-13T09:55:17;8.40;99.90
4826;DHT22;2427;50.934;6.776;2023-02-13T09:57:55;8.50;99.90
4826;DHT22;2427;50.934;6.776;2023-02-13T10:08:28;8.70;99.90
4826;DHT22;2427;50.934;6.776;2023-02-13T10:14:22;8.80;99.90
4826;DHT22;2427;50.934;6.776;2023-02-13T10:16:54;8.90;99.90
4826;DHT22;2427;50.934;6.776;2023-02-13T10:19:49;8.90;99.90
4826;DHT22;2427;50.934;6.776;2023-02-13T10:22:44;9.00;99.10
4826;DHT22;2427;50.934;6.776;2023-02-13T10:25:29;9.20;34.40
4826;DHT22;2427;50.934;6.776;2023-02-13T10:28:08;9.20;54.60
4826;DHT22;2427;50.934;6.776;2023-02-13T10:30:46;9.40;89.80
4826;DHT22;2427;50.934;6.776;2023-02-13T10:33:22;9.50;78.10
4826;DHT22;2427;50.934;6.776;2023-02-13T10:38:51;9.70;1.00
4826;DHT22;2427;50.934;6.776;2023-02-13T10:41:41;9.80;1.00
4826;DHT22;2427;50.934;6.776;2023-02-13T10:44:13;10.00;1.00
4826;DHT22;2427;50.934;6.776;2023-02-13T10:54:55;10.50;1.00
4826;DHT22;2427;50.934;6.776;2023-02-13T11:00:30;10.70;1.00
4826;DHT22;2427;50.934;6.776;2023-02-13T11:02:59;10.80;1.00
4826;DHT22;2427;50.934;6.776;2023-02-13T11:05:37;10.90;1.00
4826;DHT22;2427;50.934;6.776;2023-02-13T11:08:03;11.10;1.00
4826;DHT22;2427;50.934;6.776;2023-02-13T11:10:39;11.20;1.00
4826;DHT22;2427;50.934;6.776;2023-02-13T11:13:20;11.30;1.00
4826;DHT22;2427;50.934;6.776;2023-02-13T11:16:04;11.50;1.00
4826;DHT22;2427;50.934;6.776;2023-02-13T11:18:32;11.60;1.00
4826;DHT22;2427;50.934;6.776;2023-02-13T11:21:12;11.70;1.00
4826;DHT22;2427;50.934;6.776;2023-02-13T11:23:49;11.70;1.00
4826;DHT22;2427;50.934;6.776;2023-02-13T11:26:31;11.90;1.00
4826;DHT22;2427;50.934;6.776;2023-02-13T11:29:04;12.10;1.00
4826;DHT22;2427;50.934;6.776;2023-02-13T11:31:34;12.30;1.00
4826;DHT22;2427;50.934;6.776;2023-02-13T11:34:24;12.40;1.00
4826;DHT22;2427;50.934;6.776;2023-02-13T11:36:53;12.50;1.00
4826;DHT22;2427;50.934;6.776;2023-02-13T11:39:21;12.70;1.00
4826;DHT22;2427;50.934;6.776;2023-02-13T11:41:48;12.80;1.00
4826;DHT22;2427;50.934;6.776;2023-02-13T11:44:30;12.90;1.00
4826;DHT22;2427;50.934;6.776;2023-02-13T11:47:00;13.20;1.00
4826;DHT22;2427;50.934;6.776;2023-02-13T11:49:30;13.30;99.90
4826;DHT22;2427;50.934;6.776;2023-02-13T11:52:01;13.50;99.90
4826;DHT22;2427;50.934;6.776;2023-02-13T11:54:43;13.90;99.90
4826;DHT22;2427;50.934;6.776;2023-02-13T11:57:20;14.00;99.90
4826;DHT22;2427;50.934;6.776;2023-02-13T11:59:47;14.20;99.90
4826;DHT22;2427;50.934;6.776;2023-02-13T12:04:52;14.80;99.90
4826;DHT22;2427;50.934;6.776;2023-02-13T12:07:24;15.10;99.90
4826;DHT22;2427;50.934;6.776;2023-02-13T12:10:06;15.70;99.90
4826;DHT22;2427;50.934;6.776;2023-02-13T12:12:38;17.20;99.90
4826;DHT22;2427;50.934;6.776;2023-02-13T12:15:22;18.70;99.90
4826;DHT22;2427;50.934;6.776;2023-02-13T12:18:37;20.40;99.90
4826;DHT22;2427;50.934;6.776;2023-02-13T12:26:31;23.70;99.90
4826;DHT22;2427;50.934;6.776;2023-02-13T12:34:20;26.00;99.90
4826;DHT22;2427;50.934;6.776;2023-02-13T12:39:48;27.20;99.90
4826;DHT22;2427;50.934;6.776;2023-02-13T12:45:12;28.30;99.90
4826;DHT22;2427;50.934;6.776;2023-02-13T12:50:37;28.80;99.90
4826;DHT22;2427;50.934;6.776;2023-02-13T12:55:55;29.90;99.90
4826;DHT22;2427;50.934;6.776;2023-02-13T13:01:03;31.10;99.90
4826;DHT22;2427;50.934;6.776;2023-02-13T13:09:28;32.10;99.90
4826;DHT22;2427;50.934;6.776;2023-02-13T13:17:52;32.50;99.90
4826;DHT22;2427;50.934;6.776;2023-02-13T13:20:49;32.70;99.90
4826;DHT22;2427;50.934;6.776;2023-02-13T13:23:30;32.70;99.90
4826;DHT22;2427;50.934;6.776;2023-02-13T13:29:03;33.00;99.90
4826;DHT22;2427;50.934;6.776;2023-02-13T13:31:30;32.80;99.90
4826;DHT22;2427;50.934;6.776;2023-02-13T13:34:00;32.40;99.90
4826;DHT22;2427;50.934;6.776;2023-02-13T13:36:42;32.30;99.90
4826;DHT22;2427;50.934;6.776;2023-02-13T13:42:31;32.90;99.90
4826;DHT22;2427;50.934;6.776;2023-02-13T13:47:50;33.30;99.90
4826;DHT22;2427;50.934;6.776;2023-02-13T13:50:20;33.20;99.90
4826;DHT22;2427;50.934;6.776;2023-02-13T13:53:17;32.60;99.90
4826;DHT22;2427;50.934;6.776;2023-02-13T13:58:44;33.00;99.90
4826;DHT22;2427;50.934;6.776;2023-02-13T14:01:29;32.70;99.90
4826;DHT22;2427;50.934;6.776;2023-02-13T14:09:41;33.40;99.90
4826;DHT22;2427;50.934;6.776;2023-02-13T14:14:52;32.50;99.90
4826;DHT22;2427;50.934;6.776;2023-02-13T14:20:32;32.40;99.90
4826;DHT22;2427;50.934;6.776;2023-02-13T14:25:49;32.90;99.90
4826;DHT22;2427;50.934;6.776;2023-02-13T14:28:25;32.90;99.90
4826;DHT22;2427;50.934;6.776;2023-02-13T14:30:52;32.30;99.00
4826;DHT22;2427;50.934;6.776;2023-02-13T14:33:30;32.00;98.50
4826;DHT22;2427;50.934;6.776;2023-02-13T14:36:05;32.60;98.20
4826;DHT22;2427;50.934;6.776;2023-02-13T14:38:33;32.50;98.00
4826;DHT22;2427;50.934;6.776;2023-02-13T14:40:58;32.10;96.00
4826;DHT22;2427;50.934;6.776;2023-02-13T14:46:33;27.90;84.90
4826;DHT22;2427;50.934;6.776;2023-02-13T14:49:12;25.90;76.70
4826;DHT22;2427;50.934;6.776;2023-02-13T14:51:49;24.20;72.90
4826;DHT22;2427;50.934;6.776;2023-02-13T14:54:35;22.80;82.20
4826;DHT22;2427;50.934;6.776;2023-02-13T14:57:24;21.60;63.70
4826;DHT22;2427;50.934;6.776;2023-02-13T15:00:06;20.60;63.40
4826;DHT22;2427;50.934;6.776;2023-02-13T15:02:36;19.80;59.90
4826;DHT22;2427;50.934;6.776;2023-02-13T15:05:11;19.30;61.50
4826;DHT22;2427;50.934;6.776;2023-02-13T15:07:45;18.70;62.20
4826;DHT22;2427;50.934;6.776;2023-02-13T15:10:47;18.10;64.30
4826;DHT22;2427;50.934;6.776;2023-02-13T15:13:35;17.50;63.40
4826;DHT22;2427;50.934;6.776;2023-02-13T15:16:10;17.20;67.20
4826;DHT22;2427;50.934;6.776;2023-02-13T15:18:49;16.90;67.50
4826;DHT22;2427;50.934;6.776;2023-02-13T15:21:22;16.60;70.60
4826;DHT22;2427;50.934;6.776;2023-02-13T15:23:51;16.30;72.70
4826;DHT22;2427;50.934;6.776;2023-02-13T15:26:19;16.10;75.00
4826;DHT22;2427;50.934;6.776;2023-02-13T15:29:11;15.80;77.90
4826;DHT22;2427;50.934;6.776;2023-02-13T15:31:37;15.60;80.60
4826;DHT22;2427;50.934;6.776;2023-02-13T15:34:03;15.30;83.10
4826;DHT22;2427;50.934;6.776;2023-02-13T15:36:43;15.20;86.50
4826;DHT22;2427;50.934;6.776;2023-02-13T15:39:16;14.90;89.50
4826;DHT22;2427;50.934;6.776;2023-02-13T15:41:46;14.80;91.10
4826;DHT22;2427;50.934;6.776;2023-02-13T15:44:33;14.60;91.80
4826;DHT22;2427;50.934;6.776;2023-02-13T15:47:22;14.50;93.50
4826;DHT22;2427;50.934;6.776;2023-02-13T15:49:51;14.30;96.00
4826;DHT22;2427;50.934;6.776;2023-02-13T15:52:32;14.10;98.10
4826;DHT22;2427;50.934;6.776;2023-02-13T15:54:59;14.00;99.90
4826;DHT22;2427;50.934;6.776;2023-02-13T15:57:25;13.90;99.90
4826;DHT22;2427;50.934;6.776;2023-02-13T15:59:52;13.80;99.90
4826;DHT22;2427;50.934;6.776;2023-02-13T16:02:35;13.60;99.90
4826;DHT22;2427;50.934;6.776;2023-02-13T16:05:02;13.50;99.90
4826;DHT22;2427;50.934;6.776;2023-02-13T16:07:28;13.40;99.90
4826;DHT22;2427;50.934;6.776;2023-02-13T16:10:14;13.30;99.90
4826;DHT22;2427;50.934;6.776;2023-02-13T16:12:46;13.20;99.90
4826;DHT22;2427;50.934;6.776;2023-02-13T16:15:16;13.10;99.90
4826;DHT22;2427;50.934;6.776;2023-02-13T16:17:45;13.00;99.90
4826;DHT22;2427;50.934;6.776;2023-02-13T16:22:44;12.70;99.90
4826;DHT22;2427;50.934;6.776;2023-02-13T16:25:32;12.60;99.90
4826;DHT22;2427;50.934;6.776;2023-02-13T16:28:01;12.50;99.90
4826;DHT22;2427;50.934;6.776;2023-02-13T16:30:31;12.40;99.90
4826;DHT22;2427;50.934;6.776;2023-02-13T16:35:45;12.20;99.90
4826;DHT22;2427;50.934;6.776;2023-02-13T16:38:34;12.10;99.90
4826;DHT22;2427;50.934;6.776;2023-02-13T16:41:05;12.00;99.90
4826;DHT22;2427;50.934;6.776;2023-02-13T16:44:23;11.90;99.90
4826;DHT22;2427;50.934;6.776;2023-02-13T16:47:00;11.80;99.90
4826;DHT22;2427;50.934;6.776;2023-02-13T16:49:55;11.60;99.90
4826;DHT22;2427;50.934;6.776;2023-02-13T16:52:22;11.60;99.90
4826;DHT22;2427;50.934;6.776;2023-02-13T16:54:54;11.50;99.90
4826;DHT22;2427;50.934;6.776;2023-02-13T16:57:32;11.40;99.90
4826;DHT22;2427;50.934;6.776;2023-02-13T17:02:45;11.20;99.90
4826;DHT22;2427;50.934;6.776;2023-02-13T17:05:15;11.10;99.90
4826;DHT22;2427;50.934;6.776;2023-02-13T17:07:44;11.00;99.90
4826;DHT22;2427;50.934;6.776;2023-02-13T17:10:32;10.90;99.90
4826;DHT22;2427;50.934;6.776;2023-02-13T17:13:00;10.90;99.90
4826;DHT22;2427;50.934;6.776;2023-02-13T17:15:29;10.80;99.90
4826;DHT22;2427;50.934;6.776;2023-02-13T17:17:55;10.70;99.90
4826;DHT22;2427;50.934;6.776;2023-02-13T17:20:24;10.60;99.90
4826;DHT22;2427;50.934;6.776;2023-02-13T17:22:55;10.60;99.90
4826;DHT22;2427;50.934;6.776;2023-02-13T17:25:24;10.50;99.90
4826;DHT22;2427;50.934;6.776;2023-02-13T17:27:52;10.40;99.90
4826;DHT22;2427;50.934;6.776;2023-02-13T17:30:24;10.40;99.90
4826;DHT22;2427;50.934;6.776;2023-02-13T17:32:54;10.30;99.90
4826;DHT22;2427;50.934;6.776;2023-02-13T17:35:21;10.20;99.90
4826;DHT22;2427;50.934;6.776;2023-02-13T17:37:47;10.10;99.90
4826;DHT22;2427;50.934;6.776;2023-02-13T17:40:21;10.00;99.90
4826;DHT22;2427;50.934;6.776;2023-02-13T17:42:51;10.00;99.90
4826;DHT22;2427;50.934;6.776;2023-02-13T17:45:19;9.90;99.90
4826;DHT22;2427;50.934;6.776;2023-02-13T17:47:45;9.90;99.90
4826;DHT22;2427;50.934;6.776;2023-02-13T17:50:12;9.80;99.90
4826;DHT22;2427;50.934;6.776;2023-02-13T17:52:38;9.70;99.90
4826;DHT22;2427;50.934;6.776;2023-02-13T17:55:06;9.70;99.90
4826;DHT22;2427;50.934;6.776;2023-02-13T17:57:32;9.60;99.90
4826;DHT22;2427;50.934;6.776;2023-02-13T17:59:58;9.50;1.00
4826;DHT22;2427;50.934;6.776;2023-02-13T18:02:27;9.50;1.00
4826;DHT22;2427;50.934;6.776;2023-02-13T18:04:53;9.40;1.00
4826;DHT22;2427;50.934;6.776;2023-02-13T18:07:19;9.40;1.00
4826;DHT22;2427;50.934;6.776;2023-02-13T18:09:46;9.30;1.00
4826;DHT22;2427;50.934;6.776;2023-02-13T18:12:20;9.30;1.00
4826;DHT22;2427;50.934;6.776;2023-02-13T18:14:46;9.20;1.00
4826;DHT22;2427;50.934;6.776;2023-02-13T18:17:12;9.20;1.00
4826;DHT22;2427;50.934;6.776;2023-02-13T18:19:38;9.20;1.00
4826;DHT22;2427;50.934;6.776;2023-02-13T18:22:05;9.20;1.00
4826;DHT22;2427;50.934;6.776;2023-02-13T18:24:33;9.10;1.00
4826;DHT22;2427;50.934;6.776;2023-02-13T18:26:59;9.10;1.00
4826;DHT22;2427;50.934;6.776;2023-02-13T18:29:25;9.00;1.00
4826;DHT22;2427;50.934;6.776;2023-02-13T18:31:51;8.90;1.00
4826;DHT22;2427;50.934;6.776;2023-02-13T18:34:18;8.90;1.00
4826;DHT22;2427;50.934;6.776;2023-02-13T18:36:45;8.90;1.00
4826;DHT22;2427;50.934;6.776;2023-02-13T18:39:10;8.80;1.00
4826;DHT22;2427;50.934;6.776;2023-02-13T18:41:36;8.80;1.00
4826;DHT22;2427;50.934;6.776;2023-02-13T18:44:01;8.70;1.00
4826;DHT22;2427;50.934;6.776;2023-02-13T18:46:27;8.70;1.00
4826;DHT22;2427;50.934;6.776;2023-02-13T18:48:52;8.70;1.00
4826;DHT22;2427;50.934;6.776;2023-02-13T18:51:18;8.60;1.00
4826;DHT22;2427;50.934;6.776;2023-02-13T18:53:43;8.60;1.00
4826;DHT22;2427;50.934;6.776;2023-02-13T18:56:09;8.50;1.00
4826;DHT22;2427;50.934;6.776;2023-02-13T18:58:35;8.50;1.00
4826;DHT22;2427;50.934;6.776;2023-02-13T19:01:10;8.40;1.00
4826;DHT22;2427;50.934;6.776;2023-02-13T19:03:36;8.30;1.00
4826;DHT22;2427;50.934;6.776;2023-02-13T19:06:07;8.20;1.00
4826;DHT22;2427;50.934;6.776;2023-02-13T19:08:34;8.20;1.00
4826;DHT22;2427;50.934;6.776;2023-02-13T19:11:08;8.20;1.00